Onoway, Canada
Current Conditions -  °F | °C
As of 9:00 AM on Friday 28 Nov 2014 (Local Time) from CWSE Reporting Station
Light Snow Light Snow  
Wind Chill: -22°   Ceiling: 3900
Heat Index: -9°   Visibility: 4mi
Dew Point: -13°   Wind: 6mph
Humidity: 81%   Direction: 320°NW
Pressure: 29.8"   Gusts: NA
Location:  53.7°N, 114.18°W
Report Text: CWSE 281600Z 32005KT 4SM -SN OVC039 M23/M25 A2980 RMK SLP189 T12261251 WSI/SWOB
Loading
Personal Weather Stations






























Interactive Weather Map New forecast layout! Learn more

10-Day Weather Forecast

Advertisements
Track Severe Weather on mobile